Hosford, Florida
Current Conditions -  °F | °C
As of 8:35 AM on Monday 22 Dec 2014 (Local Time) from K2J9 Reporting Station
Overcast Overcast  
Wind Chill: 13°   Ceiling: 300
Heat Index: 13°   Visibility: 0mi
Dew Point: 13°   Wind: 3mph
Humidity: 100%   Direction: 80°E
Pressure: 29.99"   Gusts: NA
Location:  30.39°N, 84.8°W
Report Text: K2J9 221335Z AUTO 08003KT M1/4SM OVC003 13/13 A2999 RMK AO1
Loading
Personal Weather Stations






























Interactive Weather Map New forecast layout! Learn more

10-Day Weather Forecast

Advertisements
Track Severe Weather on mobile